Time;durP1;ratioP1;P1;durP2;ratioP2;P2;SDS_P1;SDS_P2;PMS_P1;PMS_P2;Temp;Humidity;BMP_temperature;BMP_pressure;BME280_temperature;BME280_humidity;BME280_pressure;Samples;Min_cycle;Max_cycle;Signal;HPM_P1;HPM_P2
2023/01/29 00:01:42;;;;;;;10.23;8.00;;;;;;;7.24;48.29;99429.16;5031334;28;20402;-48
2023/01/29 00:04:08;;;;;;;12.90;8.70;;;;;;;7.14;48.48;99432.75;5031423;28;20025;-48
2023/01/29 00:06:33;;;;;;;15.93;10.13;;;;;;;7.01;48.82;99427.16;5031374;28;20087;-48
2023/01/29 00:08:59;;;;;;;10.00;7.75;;;;;;;7.00;48.64;99428.13;4997799;28;20036;-48
2023/01/29 00:11:25;;;;;;;11.77;8.38;;;;;;;6.97;47.92;99434.47;5035149;28;20061;-48
2023/01/29 00:13:51;;;;;;;10.48;8.30;;;;;;;6.81;48.66;99434.44;5017417;28;20032;-48
2023/01/29 00:16:17;;;;;;;10.48;8.45;;;;;;;6.75;48.94;99435.88;5017304;28;20030;-48
2023/01/29 00:18:43;;;;;;;15.38;9.55;;;;;;;6.60;49.05;99437.47;5035054;28;20056;-48
2023/01/29 00:21:14;;;;;;;12.50;9.02;;;;;;;6.61;49.62;99433.84;5035014;28;20391;-48
2023/01/29 00:23:40;;;;;;;13.32;8.77;;;;;;;6.78;49.46;99437.34;5017095;28;20034;-48
2023/01/29 00:26:06;;;;;;;11.98;8.60;;;;;;;7.00;49.61;99439.41;5035152;28;20018;-47
2023/01/29 00:28:32;;;;;;;13.13;8.85;;;;;;;7.19;49.27;99435.69;5017101;28;20052;-48
2023/01/29 00:30:57;;;;;;;14.63;9.07;;;;;;;7.34;49.26;99438.47;5034803;28;20093;-48
2023/01/29 00:33:23;;;;;;;13.77;9.77;;;;;;;7.49;48.84;99437.88;5035262;28;20104;-47
2023/01/29 00:35:48;;;;;;;15.45;10.32;;;;;;;7.55;49.11;99432.00;5016900;28;20172;-48
2023/01/29 00:38:14;;;;;;;12.18;8.45;;;;;;;7.62;48.84;99424.31;5016856;28;20087;-48
2023/01/29 00:46:09;;;;;;;13.45;8.77;;;;;;;7.40;48.35;99422.19;5034560;28;20036;-48
2023/01/29 00:48:34;;;;;;;10.77;8.95;;;;;;;7.39;48.70;99417.94;5034392;28;20026;-48
2023/01/29 00:51:01;;;;;;;13.23;9.38;;;;;;;7.39;48.50;99422.34;5034407;28;20144;-48
2023/01/29 00:53:28;;;;;;;16.95;10.73;;;;;;;7.28;48.95;99420.03;5034190;28;20148;-48
2023/01/29 00:55:53;;;;;;;13.48;9.77;;;;;;;7.30;48.85;99416.28;5034319;28;20029;-48
2023/01/29 00:58:32;;;;;;;10.85;8.13;;;;;;;7.40;48.65;99419.59;5016465;28;20510;-48
2023/01/29 01:00:59;;;;;;;15.45;10.25;;;;;;;7.34;48.44;99414.97;5034544;28;20078;-48
2023/01/29 01:03:25;;;;;;;14.35;10.15;;;;;;;7.27;49.04;99424.44;5034132;28;20032;-48
2023/01/29 01:06:05;;;;;;;11.20;8.90;;;;;;;7.25;48.25;99429.00;5034197;28;20029;-48
2023/01/29 01:11:15;;;;;;;17.20;10.63;;;;;;;7.12;48.96;99420.81;5034396;28;20033;-48
2023/01/29 01:13:41;;;;;;;14.85;9.35;;;;;;;7.16;48.57;99427.34;5016267;28;20030;-48
2023/01/29 01:16:15;;;;;;;13.98;9.38;;;;;;;7.20;48.79;99426.91;5016114;28;20021;-48
2023/01/29 01:18:41;;;;;;;15.43;9.52;;;;;;;7.17;49.53;99429.81;5033924;28;20083;-48
2023/01/29 01:21:07;;;;;;;12.27;9.25;;;;;;;7.23;49.10;99430.16;5033390;28;20092;-48
2023/01/29 01:23:33;;;;;;;13.25;10.73;;;;;;;7.33;49.54;99433.44;4999764;28;20029;-48
2023/01/29 01:26:00;;;;;;;12.43;9.02;;;;;;;7.45;49.13;99434.75;5033829;28;20407;-48
2023/01/29 01:28:26;;;;;;;14.00;9.77;;;;;;;7.49;48.48;99430.03;5033698;28;20403;-48
2023/01/29 01:30:52;;;;;;;16.02;10.30;;;;;;;7.34;48.96;99427.22;5015921;28;20029;-47
2023/01/29 01:33:18;;;;;;;12.68;9.10;;;;;;;7.26;48.67;99429.81;5015896;28;20438;-48
2023/01/29 01:35:43;;;;;;;11.48;9.00;;;;;;;7.26;48.94;99429.81;5033620;28;20039;-49
2023/01/29 01:38:09;;;;;;;12.27;9.00;;;;;;;7.32;49.04;99431.78;5033540;28;20114;-48
2023/01/29 01:40:34;;;;;;;14.75;10.70;;;;;;;7.27;48.56;99442.72;5015648;28;20079;-48
2023/01/29 01:43:00;;;;;;;14.57;10.63;;;;;;;7.09;49.22;99442.03;5015577;28;20029;-48
2023/01/29 01:45:31;;;;;;;13.10;10.18;;;;;;;6.82;49.43;99448.28;5015642;28;20022;-48
2023/01/29 01:48:18;;;;;;;11.93;10.25;;;;;;;6.41;50.44;99451.53;5033576;28;20029;-48
2023/01/29 01:50:50;;;;;;;14.10;10.02;;;;;;;6.37;50.54;99447.59;5015631;28;20087;-49
2023/01/29 01:53:40;;;;;;;13.80;10.07;;;;;;;6.48;50.47;99444.72;5015311;28;20510;-49
2023/01/29 01:56:18;;;;;;;13.70;9.57;;;;;;;6.57;50.54;99449.00;5015575;28;20164;-48
2023/01/29 01:58:57;;;;;;;12.77;10.20;;;;;;;6.80;50.55;99448.44;5015445;28;20454;-48
2023/01/29 02:01:28;;;;;;;14.43;9.45;;;;;;;6.96;50.79;99450.28;5033149;28;20021;-48
2023/01/29 02:09:41;;;;;;;15.63;9.63;;;;;;;7.24;50.24;99456.09;5033296;28;20509;-48
2023/01/29 02:12:11;;;;;;;12.63;9.13;;;;;;;7.26;50.40;99458.53;5032894;28;20026;-48
2023/01/29 02:14:39;;;;;;;18.20;12.07;;;;;;;7.37;50.52;99466.09;5032997;28;20040;-49
2023/01/29 02:17:13;;;;;;;12.75;10.05;;;;;;;7.18;49.67;99462.78;5032742;28;20029;-48
2023/01/29 02:19:53;;;;;;;20.27;13.40;;;;;;;6.71;50.72;99463.25;5032871;28;20487;-48
2023/01/29 02:22:34;;;;;;;47.17;20.52;;;;;;;6.57;51.89;99469.03;5032693;28;20087;-48
2023/01/29 02:25:47;;;;;;;20.90;10.77;;;;;;;6.81;52.07;99470.97;5032754;28;20035;-47
2023/01/29 02:28:21;;;;;;;14.93;10.32;;;;;;;7.02;51.05;99473.16;5032835;28;20091;-48
2023/01/29 02:30:55;;;;;;;14.30;9.75;;;;;;;6.89;51.40;99476.22;5032848;28;20395;-48
2023/01/29 02:33:42;;;;;;;14.20;10.27;;;;;;;6.84;51.04;99473.28;5031806;28;20060;-48
2023/01/29 02:36:30;;;;;;;15.40;9.05;;;;;;;6.66;51.28;99478.56;5032526;28;20112;-48
2023/01/29 02:39:12;;;;;;;13.02;9.52;;;;;;;6.57;51.07;99487.31;5014728;28;20087;-48
2023/01/29 02:42:04;;;;;;;16.98;10.82;;;;;;;6.25;51.40;99488.72;5032424;28;20136;-48
2023/01/29 02:44:37;;;;;;;12.57;9.80;;;;;;;6.02;51.44;99493.63;5032366;28;20040;-48
2023/01/29 02:47:15;;;;;;;17.58;9.85;;;;;;;5.85;52.26;99492.63;5032178;28;20514;-48
2023/01/29 02:50:19;;;;;;;15.32;10.38;;;;;;;5.87;53.99;99495.91;5014530;28;20029;-48
2023/01/29 02:52:55;;;;;;;15.20;10.98;;;;;;;6.17;54.02;99488.66;4994349;28;20052;-48
2023/01/29 02:55:32;;;;;;;20.02;12.38;;;;;;;6.36;53.07;99491.09;5032138;28;20048;-48
2023/01/29 02:58:23;;;;;;;19.08;13.07;;;;;;;6.63;53.37;99498.91;5032185;28;20029;-48
2023/01/29 03:00:52;;;;;;;15.15;9.93;;;;;;;6.78;52.26;99499.94;5032158;28;20590;-48
2023/01/29 03:03:23;;;;;;;13.82;9.20;;;;;;;6.94;51.78;99502.66;5032007;28;20037;-48
2023/01/29 03:06:01;;;;;;;12.55;9.60;;;;;;;7.07;51.63;99504.81;5014286;28;20120;-48
2023/01/29 03:08:44;;;;;;;15.75;10.02;;;;;;;7.09;50.91;99495.03;5014318;28;20079;-48
2023/01/29 03:11:12;;;;;;;15.95;10.48;;;;;;;7.13;51.83;99506.81;5032222;28;20123;-48
2023/01/29 03:13:41;;;;;;;14.10;9.32;;;;;;;7.17;51.64;99515.16;5031982;28;20109;-48
2023/01/29 03:16:19;;;;;;;15.50;10.63;;;;;;;7.03;50.69;99515.75;5014095;28;20091;-48
2023/01/29 03:18:57;;;;;;;15.15;10.73;;;;;;;6.64;51.52;99510.97;5031859;28;20025;-49
2023/01/29 03:32:43;;;;;;;18.88;10.10;;;;;;;6.93;51.15;99529.72;5032138;28;20568;-48
2023/01/29 03:35:13;;;;;;;15.30;11.20;;;;;;;6.92;51.84;99525.50;5013881;28;20447;-49
2023/01/29 03:37:46;;;;;;;12.50;10.25;;;;;;;6.97;51.44;99536.25;5031671;28;20029;-48
2023/01/29 03:40:13;;;;;;;13.23;9.65;;;;;;;6.94;51.07;99536.59;5031674;28;20164;-48
2023/01/29 03:43:09;;;;;;;12.60;9.13;;;;;;;6.78;51.57;99536.47;5013876;28;20079;-48
2023/01/29 03:45:46;;;;;;;13.30;9.77;;;;;;;6.88;52.55;99537.22;5018836;28;20029;-48
2023/01/29 03:48:34;;;;;;;12.75;9.80;;;;;;;6.97;50.73;99528.44;5035764;28;20022;-48
2023/01/29 03:51:14;;;;;;;14.95;9.77;;;;;;;7.02;51.66;99532.38;5017836;28;20040;-48
2023/01/29 03:54:13;;;;;;;18.05;10.18;;;;;;;7.04;51.75;99533.84;5017636;28;20430;-48
2023/01/29 03:56:46;;;;;;;11.85;8.48;;;;;;;6.96;50.08;99525.97;5010819;28;20029;-48
2023/01/29 03:59:22;;;;;;;15.20;9.18;;;;;;;6.70;49.48;99524.22;5035491;28;20036;-48
2023/01/29 04:01:52;;;;;;;15.65;9.68;;;;;;;6.30;50.45;99530.81;5035348;28;20390;-48
2023/01/29 04:04:29;;;;;;;14.80;9.35;;;;;;;5.85;51.73;99531.69;5017645;28;20569;-48
2023/01/29 04:06:59;;;;;;;16.00;9.70;;;;;;;5.93;52.68;99536.16;5035351;28;20109;-48
2023/01/29 04:09:33;;;;;;;12.05;9.30;;;;;;;6.30;52.64;99529.97;5017563;28;20044;-48
2023/01/29 04:12:09;;;;;;;18.13;9.57;;;;;;;6.60;51.61;99531.34;5035281;28;20032;-48
2023/01/29 04:14:36;;;;;;;13.98;10.57;;;;;;;6.68;51.22;99535.75;5035149;28;20044;-48
2023/01/29 04:17:08;;;;;;;13.27;9.93;;;;;;;6.66;51.34;99537.72;5035083;28;20025;-48
2023/01/29 04:19:34;;;;;;;12.52;9.73;;;;;;;6.82;51.17;99529.16;5035147;28;20025;-48
2023/01/29 04:22:13;;;;;;;16.00;8.90;;;;;;;7.03;50.99;99529.59;5017133;28;20028;-48
2023/01/29 04:24:40;;;;;;;14.13;10.07;;;;;;;7.21;50.00;99529.50;5035282;28;20112;-48
2023/01/29 04:27:43;;;;;;;15.45;9.90;;;;;;;7.28;49.90;99534.91;5017468;28;20087;-49
2023/01/29 04:30:28;;;;;;;14.30;9.80;;;;;;;7.36;50.15;99538.38;5017070;28;20466;-48
2023/01/29 04:33:20;;;;;;;17.53;10.60;;;;;;;7.44;50.64;99537.56;5034853;28;20100;-48
2023/01/29 04:36:05;;;;;;;15.23;10.35;;;;;;;7.49;49.79;99535.31;5035037;28;20410;-48
2023/01/29 04:39:00;;;;;;;13.45;9.55;;;;;;;7.36;49.09;99543.63;5034701;28;20130;-48
2023/01/29 04:41:37;;;;;;;14.13;9.23;;;;;;;7.25;49.44;99541.28;5016807;28;20035;-48
2023/01/29 04:44:02;;;;;;;19.08;9.80;;;;;;;7.14;49.99;99550.22;5034540;28;20025;-48
2023/01/29 04:46:44;;;;;;;18.83;9.88;;;;;;;7.18;50.00;99545.47;5016846;28;20052;-48
2023/01/29 04:49:20;;;;;;;15.38;10.85;;;;;;;7.25;49.22;99538.66;5034549;28;20509;-48
2023/01/29 04:52:04;;;;;;;12.68;8.88;;;;;;;7.34;49.02;99539.50;5034364;28;20495;-51
2023/01/29 04:55:08;;;;;;;13.45;9.50;;;;;;;7.33;49.35;99535.28;4993299;28;20105;-48
2023/01/29 04:58:09;;;;;;;14.60;9.52;;;;;;;7.17;49.23;99538.63;4993776;28;20060;-48
2023/01/29 05:00:42;;;;;;;13.07;10.15;;;;;;;7.00;49.77;99535.97;4993700;28;20504;-49
2023/01/29 05:03:12;;;;;;;16.10;10.68;;;;;;;6.99;49.68;99531.69;4993592;28;20057;-48
2023/01/29 05:05:41;;;;;;;13.15;10.85;;;;;;;7.02;49.91;99529.75;4993567;28;20120;-48
2023/01/29 05:08:08;;;;;;;183.15;164.88;;;;;;;7.01;50.32;99534.16;4993476;28;20037;-48
2023/01/29 05:10:34;;;;;;;70.85;51.67;;;;;;;7.01;50.32;99523.72;4993487;28;20033;-48
2023/01/29 05:13:02;;;;;;;27.17;15.57;;;;;;;7.04;50.68;99531.22;4993432;28;20556;-48
2023/01/29 05:15:43;;;;;;;14.65;11.57;;;;;;;7.03;50.11;99536.63;4994730;28;20015;-48
2023/01/29 05:18:09;;;;;;;15.15;11.57;;;;;;;7.03;50.52;99536.63;4993443;28;20035;-48
2023/01/29 05:20:38;;;;;;;14.75;10.45;;;;;;;7.02;50.20;99538.38;4994630;28;20396;-48
2023/01/29 05:23:03;;;;;;;15.35;11.70;;;;;;;6.99;50.31;99547.34;4993148;28;20121;-48
2023/01/29 05:25:31;;;;;;;15.25;11.10;;;;;;;7.00;50.47;99543.78;4993237;28;20105;-48
2023/01/29 05:28:10;;;;;;;16.90;11.18;;;;;;;6.85;50.94;99554.97;4994484;28;20027;-48
2023/01/29 05:30:37;;;;;;;15.93;11.38;;;;;;;6.68;51.69;99557.47;4994440;28;20451;-48
2023/01/29 05:33:10;;;;;;;17.77;11.02;;;;;;;6.63;52.47;99557.09;4993126;28;20048;-48
2023/01/29 05:35:36;;;;;;;13.25;10.20;;;;;;;6.67;51.74;99555.00;4993307;28;20058;-49
2023/01/29 05:38:01;;;;;;;15.13;11.13;;;;;;;6.60;52.12;99560.03;4992981;28;20064;-49
2023/01/29 05:40:27;;;;;;;13.07;11.50;;;;;;;6.51;52.49;99564.34;4992977;28;20022;-48
2023/01/29 05:42:53;;;;;;;18.63;10.70;;;;;;;6.51;52.65;99568.75;4992838;28;20089;-48
2023/01/29 05:45:19;;;;;;;15.93;10.50;;;;;;;6.52;53.05;99571.22;4992820;28;20022;-48
2023/01/29 05:47:45;;;;;;;16.92;10.90;;;;;;;6.53;53.54;99567.63;4976624;28;20030;-48
2023/01/29 05:50:13;;;;;;;18.15;12.18;;;;;;;6.53;53.35;99572.03;4992702;28;20084;-48
2023/01/29 05:52:39;;;;;;;14.18;10.63;;;;;;;6.60;52.66;99580.91;5004162;28;20041;-48
2023/01/29 05:55:06;;;;;;;13.23;10.32;;;;;;;6.68;52.77;99575.72;5015710;28;20522;-48
2023/01/29 05:57:32;;;;;;;13.07;9.95;;;;;;;6.74;52.10;99579.50;5015478;28;20053;-48
2023/01/29 05:59:57;;;;;;;17.23;10.07;;;;;;;6.73;52.23;99580.47;5033209;28;20064;-48
2023/01/29 06:02:23;;;;;;;14.00;10.77;;;;;;;6.70;51.87;99583.38;5033053;28;20036;-48
2023/01/29 06:04:51;;;;;;;14.40;9.60;;;;;;;6.62;52.11;99588.53;5015369;28;20022;-48
2023/01/29 06:07:16;;;;;;;16.33;9.90;;;;;;;6.57;52.77;99589.00;5033265;28;20030;-48
2023/01/29 06:09:42;;;;;;;13.80;10.02;;;;;;;6.45;52.53;99596.25;5033008;28;20017;-48
2023/01/29 06:12:07;;;;;;;21.40;9.77;;;;;;;6.31;52.19;99607.22;5032961;28;20057;-48
2023/01/29 06:14:33;;;;;;;13.50;9.57;;;;;;;6.19;52.71;99614.44;5032959;28;20021;-48
2023/01/29 06:16:58;;;;;;;13.20;9.85;;;;;;;6.27;53.37;99618.91;5015055;28;20129;-47
2023/01/29 06:19:24;;;;;;;12.82;9.80;;;;;;;6.49;53.45;99622.84;5032901;28;20402;-48
2023/01/29 06:21:50;;;;;;;16.80;9.93;;;;;;;6.64;52.74;99621.34;5032771;28;20048;-48
2023/01/29 06:24:15;;;;;;;16.70;10.13;;;;;;;6.65;52.49;99633.41;5032655;28;20382;-48
2023/01/29 06:26:41;;;;;;;16.88;10.85;;;;;;;6.45;52.30;99637.97;5032712;28;20026;-48
2023/01/29 06:29:06;;;;;;;14.55;10.57;;;;;;;6.18;52.76;99644.91;5032610;28;20021;-48
2023/01/29 06:31:32;;;;;;;15.55;10.50;;;;;;;5.77;53.43;99647.03;5032631;28;20031;-48
2023/01/29 06:33:58;;;;;;;16.88;11.55;;;;;;;5.62;54.48;99650.28;5032574;28;20025;-48
2023/01/29 06:36:23;;;;;;;14.13;10.73;;;;;;;5.60;54.95;99650.44;5032498;28;20156;-48
2023/01/29 06:38:49;;;;;;;13.57;10.63;;;;;;;5.68;55.73;99660.13;5014688;28;20026;-48
2023/01/29 06:41:21;;;;;;;13.55;10.25;;;;;;;5.83;55.79;99647.44;5014669;28;20026;-48
2023/01/29 06:43:47;;;;;;;14.27;10.93;;;;;;;6.05;56.23;99631.41;5032322;28;20057;-48
2023/01/29 06:46:13;;;;;;;13.57;10.32;;;;;;;6.09;54.79;99640.56;5032253;28;20115;-48
2023/01/29 06:48:38;;;;;;;12.18;10.20;;;;;;;6.11;55.17;99646.44;5032306;28;20018;-48
2023/01/29 06:51:06;;;;;;;16.05;10.45;;;;;;;6.13;54.86;99646.31;5014454;28;20025;-48
2023/01/29 06:53:36;;;;;;;21.00;12.10;;;;;;;6.14;55.30;99656.59;5032007;28;20044;-48
2023/01/29 06:56:03;;;;;;;12.23;9.88;;;;;;;6.10;54.86;99664.88;5014381;28;20036;-48
2023/01/29 06:58:29;;;;;;;14.52;11.07;;;;;;;6.06;55.16;99653.91;5032119;28;20025;-48
2023/01/29 07:01:08;;;;;;;15.23;9.77;;;;;;;6.05;55.15;99659.25;5014374;28;20377;-48
2023/01/29 07:03:34;;;;;;;12.60;9.48;;;;;;;6.09;54.64;99653.59;5014379;28;20051;-48
2023/01/29 07:06:00;;;;;;;13.40;10.43;;;;;;;6.13;54.32;99654.94;5014260;28;20487;-48
2023/01/29 07:08:25;;;;;;;14.35;9.95;;;;;;;6.22;54.38;99661.06;5031992;28;20032;-48
2023/01/29 07:10:51;;;;;;;12.75;9.73;;;;;;;6.24;54.36;99673.94;5031943;28;20025;-48
2023/01/29 07:13:16;;;;;;;13.80;10.32;;;;;;;6.18;54.82;99670.16;5031971;28;20033;-48
2023/01/29 07:15:43;;;;;;;13.60;10.40;;;;;;;6.00;53.98;99670.13;5014114;28;20036;-48
2023/01/29 07:18:12;;;;;;;15.30;10.27;;;;;;;5.71;54.40;99676.25;5031418;28;20509;-48
2023/01/29 07:20:41;;;;;;;15.02;10.73;;;;;;;5.57;54.77;99680.19;5031854;28;20398;-48
2023/01/29 07:23:11;;;;;;;16.48;11.18;;;;;;;5.33;56.38;99672.88;5031749;28;20026;-48
2023/01/29 07:25:36;;;;;;;17.75;11.98;;;;;;;5.46;56.88;99684.75;5032400;28;20398;-48
2023/01/29 07:28:03;;;;;;;14.77;10.27;;;;;;;5.19;55.80;99691.53;5014053;28;20044;-48
2023/01/29 07:30:28;;;;;;;13.27;9.38;;;;;;;5.09;56.64;99693.31;5031777;28;20024;-48
2023/01/29 07:32:54;;;;;;;18.13;10.50;;;;;;;5.19;56.45;99701.94;5014016;28;20409;-48
2023/01/29 07:35:20;;;;;;;16.52;10.20;;;;;;;5.17;56.16;99709.91;5031693;28;20036;-48
2023/01/29 07:37:49;;;;;;;15.45;11.02;;;;;;;5.17;56.56;99711.66;5013902;28;20407;-48
2023/01/29 07:40:15;;;;;;;13.90;10.88;;;;;;;5.19;57.01;99709.72;5031544;28;20024;-48
2023/01/29 07:42:42;;;;;;;15.57;10.85;;;;;;;5.14;57.14;99724.97;5031591;28;20116;-48
2023/01/29 07:45:09;;;;;;;16.13;10.70;;;;;;;5.27;57.10;99725.50;5031828;28;20021;-48
2023/01/29 07:47:35;;;;;;;13.02;10.45;;;;;;;5.39;56.49;99718.31;5031581;28;20491;-48
2023/01/29 07:50:00;;;;;;;14.60;10.32;;;;;;;5.37;56.82;99720.25;5013803;28;20045;-48
2023/01/29 07:52:28;;;;;;;15.98;10.65;;;;;;;5.41;56.40;99708.59;5010310;28;20662;-48
2023/01/29 07:54:54;;;;;;;14.68;10.80;;;;;;;5.42;56.50;99699.81;5011850;28;20029;-48
2023/01/29 07:57:19;;;;;;;14.57;11.55;;;;;;;5.66;56.88;99703.72;5010478;28;20034;-48
2023/01/29 07:59:45;;;;;;;14.80;10.13;;;;;;;6.00;56.31;99696.19;5010547;28;20030;-48
2023/01/29 08:02:11;;;;;;;13.43;9.88;;;;;;;6.28;55.93;99703.94;5011668;28;20476;-48
2023/01/29 08:04:37;;;;;;;15.68;9.82;;;;;;;6.47;55.33;99698.63;5011757;28;20022;-48
2023/01/29 08:07:03;;;;;;;14.32;10.30;;;;;;;6.66;54.88;99694.22;5011686;28;20037;-48
2023/01/29 08:09:29;;;;;;;12.88;10.38;;;;;;;6.79;54.26;99699.88;5011729;28;20022;-47
2023/01/29 08:11:55;;;;;;;12.88;9.95;;;;;;;6.79;54.10;99699.88;5010394;28;20029;-48
2023/01/29 08:14:22;;;;;;;16.33;10.77;;;;;;;6.84;53.48;99697.66;5011684;28;20034;-47
2023/01/29 08:16:48;;;;;;;15.13;11.35;;;;;;;6.84;54.03;99695.03;5011621;28;20026;-48
2023/01/29 08:19:14;;;;;;;16.33;9.95;;;;;;;6.91;53.87;99701.28;5011663;28;20118;-48
2023/01/29 08:21:39;;;;;;;13.18;10.07;;;;;;;6.98;53.83;99693.66;5010328;28;20034;-48
2023/01/29 08:24:06;;;;;;;13.45;10.65;;;;;;;6.99;52.62;99687.47;5010237;28;20029;-48
2023/01/29 08:26:31;;;;;;;12.98;10.20;;;;;;;6.91;52.53;99690.03;5010283;28;20022;-48
2023/01/29 08:28:57;;;;;;;15.32;11.63;;;;;;;6.84;52.84;99688.97;5011576;28;20037;-48
2023/01/29 08:31:23;;;;;;;15.77;11.40;;;;;;;6.83;52.85;99697.78;5014275;28;20034;-48
2023/01/29 08:33:48;;;;;;;15.15;10.35;;;;;;;6.96;53.00;99703.41;5013828;28;20456;-48
2023/01/29 08:36:14;;;;;;;15.15;11.50;;;;;;;7.12;53.39;99703.56;5015044;28;20030;-49
2023/01/29 08:38:40;;;;;;;15.82;11.27;;;;;;;7.16;52.59;99711.88;5015248;28;20453;-48
2023/01/29 08:41:06;;;;;;;12.85;10.50;;;;;;;7.08;52.54;99711.84;5013670;28;20050;-48
2023/01/29 08:43:34;;;;;;;16.15;11.43;;;;;;;7.09;52.22;99718.72;4997311;28;20124;-48
2023/01/29 08:45:59;;;;;;;15.63;12.07;;;;;;;7.15;52.74;99723.31;5014881;28;20017;-48
2023/01/29 08:48:25;;;;;;;22.90;13.98;;;;;;;7.14;52.28;99732.94;5013548;28;20495;-48
2023/01/29 08:50:51;;;;;;;19.90;12.52;;;;;;;7.10;52.56;99730.78;5014970;28;20143;-48
2023/01/29 08:53:18;;;;;;;18.52;13.40;;;;;;;7.15;53.23;99736.38;5024777;28;20041;-48
2023/01/29 08:55:45;;;;;;;23.30;13.00;;;;;;;7.20;53.84;99731.50;5034412;28;20025;-49
2023/01/29 08:58:11;;;;;;;16.08;11.70;;;;;;;7.19;52.42;99729.88;5016593;28;20029;-48
2023/01/29 09:00:37;;;;;;;20.00;11.90;;;;;;;6.88;53.06;99726.84;5016507;28;20033;-49
2023/01/29 09:03:03;;;;;;;15.15;11.85;;;;;;;6.93;53.58;99722.81;5034208;28;20643;-48
2023/01/29 09:05:29;;;;;;;13.77;10.88;;;;;;;6.92;52.41;99729.03;5016473;28;20392;-48
2023/01/29 09:07:58;;;;;;;14.95;10.48;;;;;;;6.93;53.41;99732.44;5016440;28;20025;-48
2023/01/29 09:10:23;;;;;;;17.35;10.75;;;;;;;7.08;53.03;99743.16;5034204;28;20033;-48
2023/01/29 09:12:49;;;;;;;17.85;10.77;;;;;;;7.15;52.37;99746.81;5034136;28;20402;-48
2023/01/29 09:15:15;;;;;;;14.85;10.70;;;;;;;7.16;52.29;99746.66;4999979;28;20033;-48
2023/01/29 09:17:40;;;;;;;15.82;10.90;;;;;;;7.20;52.19;99750.63;5034081;28;20029;-48
2023/01/29 09:20:07;;;;;;;20.77;11.40;;;;;;;7.01;51.63;99748.16;5016223;28;20071;-48
2023/01/29 09:22:33;;;;;;;24.40;11.35;;;;;;;6.88;51.80;99753.78;5033823;28;20029;-48
2023/01/29 09:24:58;;;;;;;13.13;10.65;;;;;;;6.87;52.17;99756.53;5016049;28;20095;-48
2023/01/29 09:27:25;;;;;;;13.18;9.95;;;;;;;6.93;52.40;99756.75;5016070;28;20029;-48
2023/01/29 09:29:50;;;;;;;20.05;10.07;;;;;;;7.16;52.59;99758.88;5016291;28;20025;-48
2023/01/29 09:32:16;;;;;;;16.35;10.27;;;;;;;7.34;52.44;99764.88;5016267;28;20033;-48
2023/01/29 09:34:41;;;;;;;13.63;11.68;;;;;;;7.31;50.86;99764.38;5033774;28;20026;-48
2023/01/29 09:37:07;;;;;;;28.08;18.50;;;;;;;6.84;53.23;99769.88;5033691;28;20570;-48
2023/01/29 09:39:33;;;;;;;16.25;10.88;;;;;;;7.04;53.37;99760.09;5015846;28;20152;-48
2023/01/29 09:42:17;;;;;;;15.35;11.25;;;;;;;7.28;52.32;99773.31;5033252;28;20030;-48
2023/01/29 09:45:02;;;;;;;14.93;11.05;;;;;;;7.49;52.39;99777.41;5033593;28;20030;-48
2023/01/29 09:47:30;;;;;;;13.57;10.60;;;;;;;7.63;51.82;99784.69;5033828;28;20043;-48
2023/01/29 09:50:12;;;;;;;13.13;9.52;;;;;;;7.71;51.48;99784.72;5033453;28;20637;-48
2023/01/29 09:52:43;;;;;;;13.52;10.82;;;;;;;7.80;50.81;99782.97;4999803;28;20107;-48
2023/01/29 09:55:22;;;;;;;13.60;9.73;;;;;;;7.63;50.68;99786.47;5033336;28;20108;-48
2023/01/29 09:57:58;;;;;;;13.45;9.93;;;;;;;7.66;51.13;99780.94;5033549;28;20037;-48
2023/01/29 10:00:29;;;;;;;15.77;9.20;;;;;;;7.72;50.88;99773.28;5015410;28;20454;-48
2023/01/29 10:03:23;;;;;;;20.60;14.20;;;;;;;7.84;50.25;99779.06;5033145;28;20033;-48
2023/01/29 10:06:14;;;;;;;19.92;10.65;;;;;;;7.85;50.59;99782.50;5015381;28;20527;-48
2023/01/29 10:08:49;;;;;;;15.40;10.45;;;;;;;7.86;50.43;99786.75;4980390;28;20411;-48
2023/01/29 10:11:28;;;;;;;13.80;10.02;;;;;;;7.84;50.89;99791.31;5015266;28;20033;-48
2023/01/29 10:14:18;;;;;;;15.52;10.02;;;;;;;7.85;50.22;99793.78;5033010;28;20068;-48
2023/01/29 10:17:20;;;;;;;16.50;9.65;;;;;;;7.79;50.18;99792.59;5032922;28;20104;-48
2023/01/29 10:19:52;;;;;;;15.68;9.90;;;;;;;7.79;49.94;99800.44;5032874;28;20040;-48
2023/01/29 10:22:29;;;;;;;14.25;9.32;;;;;;;7.78;49.55;99804.03;5032805;28;20025;-48
2023/01/29 10:25:01;;;;;;;14.32;9.77;;;;;;;7.83;49.67;99802.72;5014960;28;20026;-48
2023/01/29 10:27:33;;;;;;;12.02;9.45;;;;;;;7.87;49.58;99806.69;5015057;28;20096;-48
2023/01/29 10:30:01;;;;;;;15.88;10.18;;;;;;;7.94;49.63;99811.13;5032635;28;20038;-48
2023/01/29 10:32:29;;;;;;;13.13;9.88;;;;;;;8.04;49.13;99811.03;5014880;28;20021;-48
2023/01/29 10:35:02;;;;;;;19.60;9.52;;;;;;;7.84;48.50;99807.00;5014949;28;20021;-48
2023/01/29 10:37:50;;;;;;;14.00;9.48;;;;;;;7.75;49.13;99814.00;5014840;28;20056;-48
2023/01/29 10:40:20;;;;;;;12.80;9.88;;;;;;;7.71;49.43;99815.28;5014745;28;20030;-48
2023/01/29 10:42:58;;;;;;;14.27;9.18;;;;;;;7.78;49.49;99814.47;5032554;28;20022;-48
2023/01/29 10:45:39;;;;;;;14.57;9.70;;;;;;;7.74;50.01;99815.75;5032409;28;20112;-48
2023/01/29 10:48:36;;;;;;;16.38;10.20;;;;;;;7.84;50.32;99812.22;5032380;28;20030;-48
2023/01/29 10:51:15;;;;;;;13.02;9.82;;;;;;;7.92;49.88;99815.69;5032216;28;20128;-48
2023/01/29 10:53:55;;;;;;;16.00;10.55;;;;;;;7.98;49.76;99812.47;5013617;28;20064;-48
2023/01/29 10:57:02;;;;;;;17.05;10.93;;;;;;;7.99;49.50;99810.69;5032281;28;20037;-48
2023/01/29 10:59:42;;;;;;;14.27;9.60;;;;;;;7.94;49.67;99805.91;4985891;28;20045;-48
2023/01/29 11:02:16;;;;;;;14.32;10.48;;;;;;;8.02;49.59;99806.94;5032124;28;20491;-48
2023/01/29 11:04:42;;;;;;;12.70;10.00;;;;;;;8.03;49.21;99798.09;5032095;28;20403;-48
2023/01/29 11:07:09;;;;;;;12.18;9.20;;;;;;;8.05;49.12;99799.59;5014306;28;20018;-48
2023/01/29 11:10:10;;;;;;;13.18;10.38;;;;;;;8.00;48.80;99796.63;5014359;28;20037;-48
2023/01/29 11:12:38;;;;;;;11.63;9.85;;;;;;;7.83;49.19;99789.66;5032297;28;20372;-48
2023/01/29 11:15:18;;;;;;;12.50;9.60;;;;;;;7.88;49.85;99800.50;5032151;28;20033;-48
2023/01/29 11:18:14;;;;;;;13.02;10.35;;;;;;;8.08;50.24;99803.69;5031982;28;20025;-48
2023/01/29 11:20:41;;;;;;;14.77;9.95;;;;;;;8.02;48.77;99796.47;5031910;28;20550;-48
2023/01/29 11:23:30;;;;;;;11.00;9.00;;;;;;;7.79;49.78;99797.84;5013984;28;20029;-48
2023/01/29 11:25:58;;;;;;;15.43;10.43;;;;;;;7.87;50.02;99793.63;5031841;28;20034;-48
2023/01/29 11:28:38;;;;;;;13.52;10.20;;;;;;;7.92;49.55;99793.97;5031821;28;20021;-48
2023/01/29 11:31:22;;;;;;;13.02;10.65;;;;;;;7.77;48.67;99798.97;5031729;28;20501;-49
2023/01/29 11:33:52;;;;;;;13.63;11.32;;;;;;;7.48;49.63;99791.44;5014168;28;20136;-48
2023/01/29 11:36:31;;;;;;;12.25;10.25;;;;;;;7.38;50.37;99787.13;5014007;28;20026;-48
2023/01/29 11:39:20;;;;;;;15.13;10.68;;;;;;;7.55;49.97;99792.47;5031775;28;20442;-48
2023/01/29 11:42:01;;;;;;;14.73;10.07;;;;;;;7.77;50.60;99785.91;5031671;28;20021;-48
2023/01/29 11:44:40;;;;;;;15.55;10.13;;;;;;;8.04;49.20;99784.88;5031494;28;20021;-48
2023/01/29 11:47:15;;;;;;;14.52;10.77;;;;;;;8.03;49.60;99780.66;5013859;28;20501;-48
2023/01/29 11:49:55;;;;;;;10.50;9.03;;;;;;;8.00;49.68;99770.50;5013892;28;20032;-48
2023/01/29 11:52:24;;;;;;;12.68;9.98;;;;;;;8.18;48.93;99779.06;5031323;28;20264;-48
2023/01/29 11:54:59;;;;;;;16.05;8.90;;;;;;;8.30;48.61;99769.13;5013850;28;20120;-48
2023/01/29 11:57:40;;;;;;;15.00;10.55;;;;;;;8.53;47.86;99766.78;5031777;28;20030;-48
2023/01/29 12:00:27;;;;;;;15.02;10.68;;;;;;;8.27;47.22;99766.00;5031553;28;20103;-48
2023/01/29 12:03:01;;;;;;;14.80;10.10;;;;;;;7.86;48.42;99771.06;5031441;28;20034;-48
2023/01/29 12:05:27;;;;;;;16.60;9.88;;;;;;;7.86;48.13;99765.84;5034345;28;20026;-48
2023/01/29 12:07:55;;;;;;;12.52;10.20;;;;;;;8.02;49.11;99763.31;5035660;28;20041;-48
2023/01/29 12:10:32;;;;;;;11.60;10.02;;;;;;;8.31;48.05;99764.72;5017468;28;20550;-48
2023/01/29 12:13:24;;;;;;;15.63;10.27;;;;;;;8.01;47.29;99766.91;5035223;28;20037;-48
2023/01/29 12:16:09;;;;;;;14.95;10.73;;;;;;;7.45;48.91;99769.06;5035238;28;20032;-48
2023/01/29 12:18:40;;;;;;;12.65;9.40;;;;;;;7.57;50.10;99767.00;5017366;28;20048;-48